Time;durP1;ratioP1;P1;durP2;ratioP2;P2;SDS_P1;SDS_P2;PMS_P1;PMS_P2;Temp;Humidity;BMP_temperature;BMP_pressure;BME280_temperature;BME280_humidity;BME280_pressure;Samples;Min_cycle;Max_cycle;Signal;HPM_P1;HPM_P2
2022/11/04 00:01:13;;;;;;;;;;;;;;;8.77;100.00;100076.34;5049032;28;19917;-60
2022/11/04 00:03:38;;;;;;;;;;;;;;;8.69;100.00;100079.91;5048416;28;19924;-60
2022/11/04 00:06:03;;;;;;;;;;;;;;;8.66;100.00;100082.88;5050945;28;20649;-59
2022/11/04 00:08:28;;;;;;;;;;;;;;;8.60;100.00;100094.16;5047771;28;19921;-60
2022/11/04 00:13:38;;;;;;;;;;;;;;;8.52;100.00;100099.53;5047196;28;19971;-59
2022/11/04 00:18:47;;;;;;;;;;;;;;;8.48;100.00;100091.13;5043968;28;19927;-59
2022/11/04 00:29:23;;;;;;;;;;;;;;;8.55;100.00;100107.09;5043519;28;19928;-59
2022/11/04 00:34:32;;;;;;;;;;;;;;;8.55;99.66;100115.88;5043366;28;20387;-59
2022/11/04 00:36:58;;;;;;;;;;;;;;;8.55;99.64;100121.16;5042356;28;19921;-58
2022/11/04 00:39:23;;;;;;;;;;;;;;;8.53;99.22;100123.16;5047708;28;20011;-58
2022/11/04 00:41:48;;;;;;;;;;;;;;;8.52;99.07;100128.63;5049099;28;19921;-59
2022/11/04 00:44:14;;;;;;;;;;;;;;;8.49;99.31;100127.16;5050000;28;19920;-59
2022/11/04 00:46:39;;;;;;;;;;;;;;;8.46;99.18;100124.88;5046286;28;19983;-59
2022/11/04 00:49:04;;;;;;;;;;;;;;;8.46;99.02;100118.75;5050511;28;20724;-59
2022/11/04 00:51:29;;;;;;;;;;;;;;;8.45;99.15;100127.69;5040424;28;19932;-58
2022/11/04 00:53:56;;;;;;;;;;;;;;;8.45;99.18;100123.22;5043847;28;19921;-58
2022/11/04 00:56:22;;;;;;;;;;;;;;;8.46;99.12;100124.03;5047183;28;19924;-58
2022/11/04 00:58:48;;;;;;;;;;;;;;;8.49;99.49;100124.50;5043381;28;20406;-58
2022/11/04 01:01:17;;;;;;;;;;;;;;;8.53;99.64;100119.69;5042802;28;19916;-58
2022/11/04 01:03:43;;;;;;;;;;;;;;;8.58;100.00;100126.09;5045694;28;19924;-58
2022/11/04 01:06:08;;;;;;;;;;;;;;;8.61;100.00;100124.94;5047632;28;19939;-58
2022/11/04 01:08:34;;;;;;;;;;;;;;;8.66;100.00;100125.22;5051700;28;19916;-56
2022/11/04 01:11:03;;;;;;;;;;;;;;;8.68;100.00;100128.53;5050415;28;19983;-59
2022/11/04 01:13:28;;;;;;;;;;;;;;;8.72;100.00;100135.13;5047617;28;19921;-58
2022/11/04 01:15:53;;;;;;;;;;;;;;;8.77;100.00;100145.19;5053210;28;19988;-58
2022/11/04 01:18:18;;;;;;;;;;;;;;;8.80;100.00;100142.19;5045173;28;19917;-59
2022/11/04 01:20:43;;;;;;;;;;;;;;;8.82;100.00;100134.88;5042998;28;19917;-59
2022/11/04 01:23:08;;;;;;;;;;;;;;;8.85;100.00;100142.47;5041988;28;20440;-58
2022/11/04 01:25:38;;;;;;;;;;;;;;;8.87;100.00;100146.59;5048250;28;19974;-58
2022/11/04 01:28:03;;;;;;;;;;;;;;;8.92;100.00;100152.19;5047584;28;19940;-58
2022/11/04 01:30:28;;;;;;;;;;;;;;;8.95;100.00;100157.13;5047823;28;19913;-57
2022/11/04 01:32:53;;;;;;;;;;;;;;;8.98;100.00;100159.44;5045432;28;19925;-58
2022/11/04 01:35:19;;;;;;;;;;;;;;;9.00;100.00;100154.78;5051813;28;19917;-58
2022/11/04 01:37:44;;;;;;;;;;;;;;;9.07;100.00;100154.06;5051600;28;19971;-58
2022/11/04 01:40:09;;;;;;;;;;;;;;;9.11;100.00;100158.84;5046747;28;19917;-58
2022/11/04 01:42:34;;;;;;;;;;;;;;;9.15;100.00;100157.47;5049145;28;20404;-58
2022/11/04 01:45:00;;;;;;;;;;;;;;;9.17;100.00;100150.16;5048575;28;20022;-58
2022/11/04 01:47:35;;;;;;;;;;;;;;;9.15;100.00;100148.69;5041529;28;19921;-58
2022/11/04 01:50:03;;;;;;;;;;;;;;;9.12;100.00;100154.34;5053481;28;19924;-58
2022/11/04 01:52:32;;;;;;;;;;;;;;;9.08;100.00;100145.94;5047650;28;19970;-58
2022/11/04 01:54:59;;;;;;;;;;;;;;;9.05;100.00;100145.47;5048251;28;19917;-58
2022/11/04 01:57:29;;;;;;;;;;;;;;;9.02;100.00;100156.44;5046941;28;19979;-58
2022/11/04 01:59:56;;;;;;;;;;;;;;;8.96;100.00;100157.94;5049145;28;19977;-59
2022/11/04 02:02:22;;;;;;;;;;;;;;;8.92;100.00;100164.59;5050379;28;20311;-58
2022/11/04 02:04:47;;;;;;;;;;;;;;;8.88;100.00;100150.06;5051208;28;19934;-58
2022/11/04 02:07:12;;;;;;;;;;;;;;;8.83;100.00;100166.47;5047838;28;19921;-58
2022/11/04 02:09:39;;;;;;;;;;;;;;;8.78;100.00;100166.19;5045132;28;20298;-58
2022/11/04 02:14:48;;;;;;;;;;;;;;;8.70;100.00;100163.59;5048191;28;20371;-59
2022/11/04 02:17:13;;;;;;;;;;;;;;;8.68;100.00;100165.59;5045236;28;19921;-57
2022/11/04 02:19:47;;;;;;;;;;;;;;;8.63;100.00;100160.81;5043129;28;19917;-59
2022/11/04 02:22:35;;;;;;;;;;;;;;;8.60;100.00;100179.69;5048087;28;19917;-59
2022/11/04 02:25:24;;;;;;;;;;;;;;;8.57;100.00;100173.91;5059732;28;19917;-58
2022/11/04 02:27:58;;;;;;;;;;;;;;;8.51;100.00;100180.72;5018882;28;19920;-58
2022/11/04 02:30:23;;;;;;;;;;;;;;;8.47;100.00;100195.31;5043673;28;19916;-57
2022/11/04 02:32:48;;;;;;;;;;;;;;;8.45;100.00;100183.25;5048255;28;19920;-58
2022/11/04 02:35:16;;;;;;;;;;;;;;;8.43;100.00;100195.84;5046401;28;20534;-57
2022/11/04 02:37:49;;;;;;;;;;;;;;;8.41;100.00;100188.06;5050026;28;19920;-57
2022/11/04 02:40:25;;;;;;;;;;;;;;;8.37;100.00;100199.97;5043782;28;19917;-58
2022/11/04 02:42:59;;;;;;;;;;;;;;;8.34;100.00;100195.84;5050073;28;19921;-58
2022/11/04 02:45:24;;;;;;;;;;;;;;;8.32;100.00;100205.75;5050274;28;19920;-58
2022/11/04 02:47:52;;;;;;;;;;;;;;;8.29;100.00;100206.09;5047717;28;19920;-59
2022/11/04 02:50:26;;;;;;;;;;;;;;;8.28;100.00;100200.97;5047279;28;19920;-58
2022/11/04 02:52:58;;;;;;;;;;;;;;;8.24;100.00;100200.50;5048681;28;19913;-59
2022/11/04 02:55:29;;;;;;;;;;;;;;;8.23;100.00;100206.78;5043497;28;19917;-58
2022/11/04 02:57:56;;;;;;;;;;;;;;;8.21;99.98;100206.13;5056994;28;19928;-58
2022/11/04 03:00:22;;;;;;;;;;;;;;;8.19;100.00;100204.66;5047163;28;19913;-57
2022/11/04 03:02:51;;;;;;;;;;;;;;;8.18;99.95;100210.94;5042722;28;19913;-58
2022/11/04 03:05:19;;;;;;;;;;;;;;;8.15;99.90;100209.47;5046456;28;19919;-58
2022/11/04 03:07:45;;;;;;;;;;;;;;;8.14;100.00;100207.00;5049888;28;19924;-57
2022/11/04 03:10:14;;;;;;;;;;;;;;;8.13;99.81;100208.81;5047347;28;19917;-59
2022/11/04 03:12:44;;;;;;;;;;;;;;;8.12;99.94;100209.81;5049125;28;19917;-57
2022/11/04 03:15:12;;;;;;;;;;;;;;;8.11;99.88;100217.91;5044576;28;20426;-57
2022/11/04 03:17:45;;;;;;;;;;;;;;;8.10;100.00;100213.63;5051902;28;19921;-58
2022/11/04 03:20:17;;;;;;;;;;;;;;;8.07;100.00;100214.75;5045519;28;19954;-57
2022/11/04 03:22:42;;;;;;;;;;;;;;;8.06;99.69;100218.41;5049146;28;19921;-58
2022/11/04 03:25:08;;;;;;;;;;;;;;;8.05;100.00;100227.31;5049440;28;19935;-57
2022/11/04 03:27:36;;;;;;;;;;;;;;;8.01;99.81;100229.47;5047710;28;19952;-58
2022/11/04 03:30:02;;;;;;;;;;;;;;;8.00;100.00;100224.38;5044861;28;19925;-58
2022/11/04 03:32:50;;;;;;;;;;;;;;;7.98;99.75;100227.19;5043790;28;19917;-58
2022/11/04 03:35:15;;;;;;;;;;;;;;;7.97;99.75;100225.53;5048541;28;19917;-58
2022/11/04 03:37:41;;;;;;;;;;;;;;;7.96;100.00;100225.69;5049282;28;20463;-57
2022/11/04 03:40:07;;;;;;;;;;;;;;;7.94;99.77;100230.34;5048148;28;19959;-58
2022/11/04 03:42:35;;;;;;;;;;;;;;;7.93;99.52;100228.69;5048033;28;19919;-58
2022/11/04 03:45:00;;;;;;;;;;;;;;;7.90;99.59;100226.38;5045817;28;19925;-58
2022/11/04 03:47:26;;;;;;;;;;;;;;;7.87;99.46;100234.66;5037884;28;19917;-59
2022/11/04 03:49:58;;;;;;;;;;;;;;;7.85;99.85;100231.34;5046692;28;19960;-58
2022/11/04 03:52:23;;;;;;;;;;;;;;;7.83;99.60;100238.63;5047394;28;19913;-59
2022/11/04 03:54:48;;;;;;;;;;;;;;;7.81;99.36;100236.16;5050805;28;19970;-58
2022/11/04 03:57:25;;;;;;;;;;;;;;;7.78;99.45;100239.94;5047011;28;20057;-58
2022/11/04 04:00:00;;;;;;;;;;;;;;;7.76;99.42;100239.28;5045041;28;19917;-58
2022/11/04 04:02:34;;;;;;;;;;;;;;;7.73;99.59;100244.06;5046725;28;19955;-59
2022/11/04 04:05:01;;;;;;;;;;;;;;;7.73;99.66;100236.97;5048558;28;20408;-59
2022/11/04 04:07:43;;;;;;;;;;;;;;;7.72;99.49;100239.78;5048249;28;20395;-57
2022/11/04 04:10:40;;;;;;;;;;;;;;;7.70;99.80;100242.59;5048594;28;19958;-57
2022/11/04 04:13:30;;;;;;;;;;;;;;;7.69;99.46;100243.56;5038042;28;19916;-59
2022/11/04 04:16:01;;;;;;;;;;;;;;;7.67;99.31;100237.63;5046129;28;19994;-58
2022/11/04 04:18:42;;;;;;;;;;;;;;;7.66;99.44;100243.09;5045689;28;19923;-58
2022/11/04 04:21:08;;;;;;;;;;;;;;;7.64;99.64;100243.25;5045784;28;19913;-57
2022/11/04 04:29:05;;;;;;;;;;;;;;;7.55;99.39;100257.47;5041106;28;19966;-59
2022/11/04 04:31:51;;;;;;;;;;;;;;;7.53;99.22;100254.16;5040534;28;20324;-58
2022/11/04 04:34:18;;;;;;;;;;;;;;;7.54;99.06;100255.81;5043200;28;20392;-57
2022/11/04 04:36:52;;;;;;;;;;;;;;;7.52;99.07;100260.44;5047350;28;19924;-59
2022/11/04 04:45:02;;;;;;;;;;;;;;;7.52;99.01;100272.81;5049470;28;19928;-58
2022/11/04 04:47:33;;;;;;;;;;;;;;;7.49;99.18;100266.03;5057410;28;19974;-58
2022/11/04 04:49:59;;;;;;;;;;;;;;;7.49;99.09;100267.84;5057784;28;20046;-59
2022/11/04 04:52:26;;;;;;;;;;;;;;;7.48;98.96;100267.03;5046845;28;19939;-58
2022/11/04 04:54:51;;;;;;;;;;;;;;;7.47;98.91;100260.91;5053289;28;19920;-58
2022/11/04 04:57:16;;;;;;;;;;;;;;;7.49;99.09;100259.94;5048029;28;19943;-58
2022/11/04 04:59:41;;;;;;;;;;;;;;;7.49;98.92;100267.84;5048515;28;19912;-58
2022/11/04 05:02:06;;;;;;;;;;;;;;;7.49;98.94;100263.41;5047065;28;19924;-57
2022/11/04 05:04:32;;;;;;;;;;;;;;;7.51;99.04;100271.16;5051562;28;19952;-59
2022/11/04 05:06:57;;;;;;;;;;;;;;;7.50;99.14;100280.91;5052818;28;19924;-57
2022/11/04 05:09:22;;;;;;;;;;;;;;;7.48;98.82;100277.59;5048162;28;19952;-59
2022/11/04 05:11:47;;;;;;;;;;;;;;;7.48;99.07;100280.22;5050588;28;19916;-58
2022/11/04 05:14:12;;;;;;;;;;;;;;;7.45;99.03;100280.56;5050550;28;20357;-59
2022/11/04 05:16:38;;;;;;;;;;;;;;;7.42;99.02;100292.28;5053599;28;19995;-59
2022/11/04 05:19:03;;;;;;;;;;;;;;;7.39;99.26;100291.78;5051589;28;19929;-59
2022/11/04 05:21:28;;;;;;;;;;;;;;;7.36;98.95;100295.59;5050391;28;19948;-57
2022/11/04 05:23:53;;;;;;;;;;;;;;;7.36;99.28;100300.03;5049860;28;19923;-59
2022/11/04 05:26:18;;;;;;;;;;;;;;;7.27;98.84;100293.09;5050989;28;19986;-58
2022/11/04 05:28:43;;;;;;;;;;;;;;;7.29;99.41;100310.44;5051215;28;19960;-58
2022/11/04 05:31:09;;;;;;;;;;;;;;;7.27;99.08;100312.41;5049469;28;19924;-57
2022/11/04 05:33:34;;;;;;;;;;;;;;;7.25;99.51;100314.41;5049995;28;20396;-58
2022/11/04 05:36:06;;;;;;;;;;;;;;;7.23;99.25;100315.53;5050729;28;20707;-59
2022/11/04 05:38:32;;;;;;;;;;;;;;;7.25;99.47;100313.56;5050856;28;19931;-58
2022/11/04 05:40:57;;;;;;;;;;;;;;;7.24;99.38;100323.31;5048533;28;20007;-59
2022/11/04 05:43:22;;;;;;;;;;;;;;;7.26;99.62;100323.97;5050659;28;19962;-58
2022/11/04 05:45:48;;;;;;;;;;;;;;;7.26;99.48;100321.34;5049325;28;20006;-58
2022/11/04 05:48:13;;;;;;;;;;;;;;;7.25;99.58;100324.13;5053972;28;20376;-58
2022/11/04 05:50:40;;;;;;;;;;;;;;;7.26;100.00;100328.44;5047767;28;19919;-59
2022/11/04 05:53:05;;;;;;;;;;;;;;;7.27;99.91;100332.72;5051018;28;19917;-59
2022/11/04 05:55:30;;;;;;;;;;;;;;;7.28;100.00;100332.56;5052382;28;20427;-58
2022/11/04 05:57:56;;;;;;;;;;;;;;;7.31;100.00;100336.69;5056124;28;19938;-58
2022/11/04 06:00:21;;;;;;;;;;;;;;;7.33;100.00;100340.00;5049375;28;19928;-58
2022/11/04 06:02:47;;;;;;;;;;;;;;;7.35;100.00;100340.66;5049731;28;19958;-57
2022/11/04 06:05:12;;;;;;;;;;;;;;;7.37;99.97;100342.16;5048681;28;19916;-58
2022/11/04 06:07:37;;;;;;;;;;;;;;;7.40;100.00;100343.63;5050004;28;20491;-57
2022/11/04 06:10:02;;;;;;;;;;;;;;;7.42;100.00;100345.13;5048854;28;19932;-58
2022/11/04 06:12:28;;;;;;;;;;;;;;;7.45;100.00;100338.69;5049839;28;19917;-58
2022/11/04 06:14:53;;;;;;;;;;;;;;;7.50;100.00;100340.84;5049254;28;19925;-57
2022/11/04 06:17:20;;;;;;;;;;;;;;;7.52;100.00;100342.34;5050703;28;19943;-58
2022/11/04 06:19:45;;;;;;;;;;;;;;;7.56;100.00;100348.97;5046583;28;19928;-58
2022/11/04 06:22:11;;;;;;;;;;;;;;;7.58;100.00;100344.34;5054718;28;19916;-58
2022/11/04 06:24:36;;;;;;;;;;;;;;;7.61;99.98;100349.28;5056252;28;19936;-58
2022/11/04 06:27:02;;;;;;;;;;;;;;;7.64;99.83;100353.41;5050857;28;20023;-58
2022/11/04 06:29:27;;;;;;;;;;;;;;;7.66;99.65;100357.56;5049346;28;19920;-58
2022/11/04 06:31:52;;;;;;;;;;;;;;;7.71;99.54;100370.28;5048979;28;19996;-58
2022/11/04 06:34:17;;;;;;;;;;;;;;;7.74;99.35;100372.59;5045233;28;20441;-56
2022/11/04 06:36:42;;;;;;;;;;;;;;;7.78;99.39;100374.72;5046961;28;19987;-58
2022/11/04 06:39:07;;;;;;;;;;;;;;;7.81;99.37;100372.78;5048781;28;20019;-59
2022/11/04 06:41:33;;;;;;;;;;;;;;;7.84;99.11;100375.09;5048087;28;19916;-57
2022/11/04 06:43:58;;;;;;;;;;;;;;;7.86;99.24;100381.88;5049686;28;19939;-58
2022/11/04 06:46:25;;;;;;;;;;;;;;;7.90;99.01;100382.34;5048415;28;19966;-58
2022/11/04 06:48:50;;;;;;;;;;;;;;;7.93;98.83;100382.84;5048588;28;19920;-58
2022/11/04 06:51:15;;;;;;;;;;;;;;;7.97;98.62;100393.91;5050445;28;19958;-58
2022/11/04 06:53:40;;;;;;;;;;;;;;;7.99;98.78;100402.50;5048322;28;19920;-59
2022/11/04 06:56:06;;;;;;;;;;;;;;;7.99;98.59;100403.34;5048781;28;19966;-58
2022/11/04 06:58:31;;;;;;;;;;;;;;;8.00;98.60;100402.34;5046779;28;19925;-59
2022/11/04 07:00:56;;;;;;;;;;;;;;;8.02;98.77;100410.94;5051311;28;19956;-57
2022/11/04 07:03:22;;;;;;;;;;;;;;;8.04;98.56;100400.19;5052409;28;19924;-57
2022/11/04 07:05:47;;;;;;;;;;;;;;;8.03;98.39;100409.13;5049480;28;20459;-58
2022/11/04 07:08:12;;;;;;;;;;;;;;;8.04;98.32;100410.78;5055663;28;19963;-59
2022/11/04 07:10:37;;;;;;;;;;;;;;;8.05;98.05;100413.25;5050791;28;19919;-58
2022/11/04 07:13:02;;;;;;;;;;;;;;;8.06;98.17;100411.44;5048878;28;19974;-57
2022/11/04 07:15:28;;;;;;;;;;;;;;;8.08;97.96;100417.38;5058174;28;19912;-58
2022/11/04 07:17:53;;;;;;;;;;;;;;;8.10;98.16;100422.53;5049152;28;20747;-57
2022/11/04 07:20:18;;;;;;;;;;;;;;;8.14;97.94;100427.31;5048450;28;19913;-58
2022/11/04 07:22:43;;;;;;;;;;;;;;;8.17;97.83;100416.41;5049402;28;20310;-58
2022/11/04 07:25:08;;;;;;;;;;;;;;;8.19;98.15;100419.72;5047472;28;19920;-59
2022/11/04 07:27:33;;;;;;;;;;;;;;;8.22;97.76;100414.09;5049195;28;20295;-58
2022/11/04 07:29:59;;;;;;;;;;;;;;;8.26;97.77;100428.63;5047412;28;19939;-58
2022/11/04 07:32:24;;;;;;;;;;;;;;;8.31;97.83;100422.84;5043450;28;19952;-58
2022/11/04 07:34:49;;;;;;;;;;;;;;;8.34;97.96;100428.66;5048828;28;19962;-58
2022/11/04 07:37:14;;;;;;;;;;;;;;;8.38;98.07;100424.72;5049011;28;20398;-57
2022/11/04 07:39:39;;;;;;;;;;;;;;;8.43;97.97;100431.31;5048567;28;19920;-57
2022/11/04 07:42:08;;;;;;;;;;;;;;;8.44;97.94;100432.97;5047999;28;19948;-58
2022/11/04 07:44:33;;;;;;;;;;;;;;;8.47;97.62;100430.81;5049004;28;19917;-58
2022/11/04 07:46:58;;;;;;;;;;;;;;;8.54;97.71;100433.63;5046916;28;19939;-58
2022/11/04 07:49:24;;;;;;;;;;;;;;;8.61;97.72;100445.19;5047650;28;19921;-58
2022/11/04 07:51:49;;;;;;;;;;;;;;;8.68;97.58;100444.38;5051672;28;20392;-57
2022/11/04 07:54:15;;;;;;;;;;;;;;;8.75;97.97;100446.34;5044384;28;19917;-57
2022/11/04 07:56:40;;;;;;;;;;;;;;;8.81;97.93;100443.00;5048467;28;19921;-58
2022/11/04 07:59:06;;;;;;;;;;;;;;;8.85;97.80;100444.31;5049369;28;20427;-58
2022/11/04 08:01:31;;;;;;;;;;;;;;;8.85;97.85;100442.50;5051677;28;19916;-58
2022/11/04 08:03:57;;;;;;;;;;;;;;;8.89;97.81;100448.28;5048030;28;19912;-58
2022/11/04 08:06:22;;;;;;;;;;;;;;;8.91;97.62;100460.34;5048771;28;19999;-58
2022/11/04 08:08:48;;;;;;;;;;;;;;;8.94;97.82;100457.34;5046484;28;20027;-58
2022/11/04 08:11:17;;;;;;;;;;;;;;;8.95;97.49;100459.00;5046693;28;20368;-58
2022/11/04 08:13:43;;;;;;;;;;;;;;;8.94;97.83;100457.34;5048128;28;20396;-59
2022/11/04 08:16:15;;;;;;;;;;;;;;;8.93;97.56;100463.66;5055598;28;19936;-58
2022/11/04 08:18:40;;;;;;;;;;;;;;;8.89;97.26;100464.16;5047603;28;19925;-58
2022/11/04 08:21:06;;;;;;;;;;;;;;;8.83;97.22;100460.38;5047725;28;19919;-58
2022/11/04 08:23:31;;;;;;;;;;;;;;;8.82;97.25;100468.50;5047145;28;20418;-58
2022/11/04 08:25:57;;;;;;;;;;;;;;;8.86;97.28;100478.56;5048161;28;19982;-57
2022/11/04 08:28:23;;;;;;;;;;;;;;;8.95;97.35;100482.84;5047164;28;20427;-58
2022/11/04 08:31:02;;;;;;;;;;;;;;;9.03;97.10;100489.16;5049289;28;20433;-58
2022/11/04 08:33:28;;;;;;;;;;;;;;;9.10;97.47;100495.41;5044363;28;19935;-57
2022/11/04 08:35:54;;;;;;;;;;;;;;;9.14;97.29;100496.72;5047977;28;19920;-58
2022/11/04 08:38:20;;;;;;;;;;;;;;;9.07;97.38;100501.88;5051269;28;20307;-57
2022/11/04 08:40:45;;;;;;;;;;;;;;;9.05;96.97;100503.03;5051015;28;19913;-58
2022/11/04 08:43:10;;;;;;;;;;;;;;;9.00;97.27;100496.44;5048454;28;19924;-57
2022/11/04 08:45:42;;;;;;;;;;;;;;;9.02;96.85;100500.72;5043486;28;20374;-58
2022/11/04 08:48:08;;;;;;;;;;;;;;;9.12;96.87;100496.06;5055768;28;19917;-58
2022/11/04 08:50:33;;;;;;;;;;;;;;;9.22;97.51;100507.28;5047646;28;19988;-58
2022/11/04 08:52:58;;;;;;;;;;;;;;;9.26;97.17;100509.44;5052057;28;19916;-58
2022/11/04 08:55:24;;;;;;;;;;;;;;;9.33;97.50;100514.88;5047918;28;19964;-58
2022/11/04 08:57:49;;;;;;;;;;;;;;;9.42;97.34;100523.63;5047244;28;19917;-58
2022/11/04 09:00:15;;;;;;;;;;;;;;;9.50;97.31;100520.94;5046535;28;19920;-58
2022/11/04 09:02:40;;;;;;;;;;;;;;;9.54;97.18;100514.31;5048870;28;19916;-58
2022/11/04 09:05:06;;;;;;;;;;;;;;;9.58;97.35;100523.59;5047040;28;19912;-57
2022/11/04 09:07:31;;;;;;;;;;;;;;;9.58;97.00;100521.75;5049100;28;19919;-58
2022/11/04 09:09:56;;;;;;;;;;;;;;;9.60;96.75;100534.84;5041764;28;19913;-58
2022/11/04 09:12:21;;;;;;;;;;;;;;;9.59;96.81;100539.31;5050296;28;19913;-58
2022/11/04 09:14:47;;;;;;;;;;;;;;;9.63;96.78;100542.47;5047607;28;20020;-58
2022/11/04 09:17:12;;;;;;;;;;;;;;;9.59;96.73;100539.31;5043348;28;19921;-58
2022/11/04 09:19:37;;;;;;;;;;;;;;;9.55;96.38;100539.84;5051139;28;20368;-59
2022/11/04 09:22:02;;;;;;;;;;;;;;;9.49;96.19;100541.31;5052856;28;19967;-58
2022/11/04 09:24:28;;;;;;;;;;;;;;;9.44;95.71;100538.38;5048378;28;20368;-58
2022/11/04 09:26:54;;;;;;;;;;;;;;;9.42;95.76;100545.66;5049788;28;20365;-58
2022/11/04 09:29:19;;;;;;;;;;;;;;;9.43;95.89;100549.97;5051296;28;19952;-58
2022/11/04 09:31:44;;;;;;;;;;;;;;;9.49;96.16;100554.56;5051794;28;20440;-57
2022/11/04 09:34:09;;;;;;;;;;;;;;;9.54;96.57;100551.41;5052747;28;19913;-58
2022/11/04 09:36:34;;;;;;;;;;;;;;;9.60;96.43;100559.53;5051229;28;20355;-58
2022/11/04 09:38:59;;;;;;;;;;;;;;;9.68;96.38;100565.78;5051341;28;19917;-59
2022/11/04 09:41:43;;;;;;;;;;;;;;;9.74;96.56;100568.59;5050202;28;19913;-58
2022/11/04 09:44:22;;;;;;;;;;;;;;;9.81;96.31;100577.50;5045960;28;19919;-57
2022/11/04 09:46:48;;;;;;;;;;;;;;;9.87;96.21;100582.13;5048779;28;19974;-58
2022/11/04 09:49:15;;;;;;;;;;;;;;;9.95;96.35;100575.97;5048198;28;19921;-58
2022/11/04 09:51:41;;;;;;;;;;;;;;;10.05;96.13;100586.34;5047393;28;19913;-58
2022/11/04 09:54:15;;;;;;;;;;;;;;;10.09;96.21;100595.63;5046577;28;20012;-58
2022/11/04 09:56:42;;;;;;;;;;;;;;;10.10;95.80;100598.09;5049702;28;19920;-58
2022/11/04 09:59:09;;;;;;;;;;;;;;;10.09;95.61;100606.22;5054343;28;19917;-59
2022/11/04 10:01:42;;;;;;;;;;;;;;;10.08;95.04;100604.56;5051596;28;19913;-58
2022/11/04 10:04:19;;;;;;;;;;;;;;;10.08;95.26;100615.19;5051266;28;20307;-58
2022/11/04 10:07:03;;;;;;;;;;;;;;;10.13;95.21;100605.72;5054730;28;20024;-58
2022/11/04 10:09:37;;;;;;;;;;;;;;;10.17;95.39;100606.22;5044834;28;19916;-57
2022/11/04 10:12:08;;;;;;;;;;;;;;;10.19;94.95;100609.50;5057000;28;20307;-58
2022/11/04 10:14:49;;;;;;;;;;;;;;;10.21;95.08;100610.19;5055255;28;19920;-57
2022/11/04 10:17:24;;;;;;;;;;;;;;;10.32;95.19;100620.41;5043616;28;19967;-58
2022/11/04 10:19:59;;;;;;;;;;;;;;;10.37;95.46;100615.41;5053808;28;19912;-58
2022/11/04 10:22:30;;;;;;;;;;;;;;;10.46;95.38;100619.69;5050717;28;19977;-58
2022/11/04 10:24:58;;;;;;;;;;;;;;;10.52;95.33;100626.94;5049468;28;19962;-57
2022/11/04 10:27:29;;;;;;;;;;;;;;;10.57;95.00;100620.28;5050430;28;19913;-58
2022/11/04 10:29:57;;;;;;;;;;;;;;;10.61;94.93;100617.09;5050105;28;19969;-58
2022/11/04 10:32:30;;;;;;;;;;;;;;;10.72;94.79;100626.50;5050824;28;19913;-58
2022/11/04 10:34:59;;;;;;;;;;;;;;;10.80;94.93;100623.78;5052447;28;19912;-58
2022/11/04 10:37:25;;;;;;;;;;;;;;;10.85;94.21;100624.88;5049882;28;19952;-59
2022/11/04 10:39:51;;;;;;;;;;;;;;;10.91;94.39;100627.84;5047828;28;19913;-58
2022/11/04 10:42:18;;;;;;;;;;;;;;;10.98;94.00;100636.75;5054060;28;19916;-57
2022/11/04 10:44:44;;;;;;;;;;;;;;;11.05;94.24;100635.03;5051893;28;20512;-58
2022/11/04 10:47:17;;;;;;;;;;;;;;;11.13;94.03;100638.44;5057988;28;20395;-58
2022/11/04 10:49:52;;;;;;;;;;;;;;;11.18;93.40;100657.34;5048141;28;20011;-57
2022/11/04 10:52:17;;;;;;;;;;;;;;;11.17;93.01;100654.88;5041953;28;19962;-58
2022/11/04 10:54:44;;;;;;;;;;;;;;;11.17;92.59;100663.66;5050051;28;19917;-58
2022/11/04 10:57:11;;;;;;;;;;;;;;;11.11;92.59;100664.38;5046546;28;19916;-58
2022/11/04 10:59:51;;;;;;;;;;;;;;;11.08;92.79;100670.06;5044658;28;19928;-58
2022/11/04 11:02:16;;;;;;;;;;;;;;;11.05;92.11;100667.75;5047630;28;19956;-58
2022/11/04 11:04:43;;;;;;;;;;;;;;;11.06;92.27;100668.59;5044478;28;19960;-58
2022/11/04 11:07:09;;;;;;;;;;;;;;;11.13;92.49;100670.34;5055546;28;19921;-57
2022/11/04 11:09:59;;;;;;;;;;;;;;;11.25;92.78;100662.75;5049010;28;19927;-58
2022/11/04 11:12:39;;;;;;;;;;;;;;;11.36;92.38;100657.03;5047990;28;19916;-58
2022/11/04 11:15:23;;;;;;;;;;;;;;;11.43;91.88;100662.44;5045459;28;20474;-57
2022/11/04 11:17:49;;;;;;;;;;;;;;;11.55;92.15;100658.34;5051331;28;19925;-58
2022/11/04 11:20:17;;;;;;;;;;;;;;;11.69;92.08;100654.06;5042890;28;20324;-58
2022/11/04 11:22:46;;;;;;;;;;;;;;;11.87;91.71;100653.75;5045838;28;19951;-58
2022/11/04 11:25:23;;;;;;;;;;;;;;;11.96;91.50;100655.28;5046963;28;20426;-57
2022/11/04 11:27:50;;;;;;;;;;;;;;;12.22;92.00;100658.28;5047467;28;19924;-58
2022/11/04 11:30:19;;;;;;;;;;;;;;;12.43;91.00;100656.69;5045286;28;20004;-58
2022/11/04 11:32:45;;;;;;;;;;;;;;;12.52;88.57;100659.06;5056016;28;20011;-58
2022/11/04 11:35:17;;;;;;;;;;;;;;;12.48;88.43;100652.47;5052594;28;20093;-58
2022/11/04 11:37:46;;;;;;;;;;;;;;;12.56;88.49;100646.19;5047598;28;20536;-58
2022/11/04 11:40:30;;;;;;;;;;;;;;;12.56;86.48;100663.00;5046197;28;20057;-58
2022/11/04 11:42:55;;;;;;;;;;;;;;;12.49;86.31;100654.13;5044925;28;20328;-58
2022/11/04 11:45:22;;;;;;;;;;;;;;;12.43;86.25;100657.50;5047280;28;19928;-56
2022/11/04 11:47:53;;;;;;;;;;;;;;;12.40;86.67;100661.38;5046683;28;19921;-59
2022/11/04 11:50:21;;;;;;;;;;;;;;;12.45;86.71;100660.84;5048663;28;19912;-58
2022/11/04 11:52:47;;;;;;;;;;;;;;;12.60;87.00;100658.94;5043281;28;20025;-58
2022/11/04 11:55:33;;;;;;;;;;;;;;;12.66;87.15;100660.03;5048444;28;20486;-59
2022/11/04 11:58:05;;;;;;;;;;;;;;;12.60;86.18;100658.94;5048097;28;20010;-58
2022/11/04 12:00:32;;;;;;;;;;;;;;;12.56;86.21;100673.66;5042064;28;20411;-58
2022/11/04 12:03:19;;;;;;;;;;;;;;;12.58;86.54;100684.13;5047791;28;20011;-58
2022/11/04 12:05:51;;;;;;;;;;;;;;;12.57;86.70;100685.13;5043394;28;19921;-59
2022/11/04 12:08:32;;;;;;;;;;;;;;;12.62;86.83;100683.56;5042306;28;19916;-58
2022/11/04 12:11:16;;;;;;;;;;;;;;;12.72;86.61;100693.91;5050160;28;19932;-57
2022/11/04 12:13:47;;;;;;;;;;;;;;;12.84;86.90;100699.59;5041711;28;20284;-58
2022/11/04 12:16:12;;;;;;;;;;;;;;;12.95;86.98;100702.56;5043452;28;20037;-57
2022/11/04 12:19:03;;;;;;;;;;;;;;;13.05;86.30;100702.28;5041867;28;20343;-58
2022/11/04 12:21:34;;;;;;;;;;;;;;;13.12;85.80;100702.34;5045757;28;19931;-57
2022/11/04 12:24:04;;;;;;;;;;;;;;;13.05;85.18;100704.94;5035445;28;20020;-59
2022/11/04 12:26:29;;;;;;;;;;;;;;;12.94;84.59;100705.44;5040241;28;19916;-59
2022/11/04 12:28:57;;;;;;;;;;;;;;;12.89;84.82;100707.84;5048222;28;19916;-57
2022/11/04 12:31:49;;;;;;;;;;;;;;;12.96;83.97;100711.38;5039731;28;19923;-57
2022/11/04 12:34:33;;;;;;;;;;;;;;;13.25;84.42;100716.63;5041970;28;20023;-58
2022/11/04 12:37:13;;;;;;;;;;;;;;;13.56;83.55;100713.63;5052228;28;20011;-58
2022/11/04 12:39:44;;;;;;;;;;;;;;;13.74;82.76;100717.66;5036284;28;19921;-58
2022/11/04 12:42:18;;;;;;;;;;;;;;;13.89;82.30;100729.91;5044842;28;19917;-58
2022/11/04 12:44:44;;;;;;;;;;;;;;;14.00;82.91;100733.88;5050158;28;20416;-57
2022/11/04 12:47:09;;;;;;;;;;;;;;;14.08;82.72;100736.38;5029627;28;19924;-57
2022/11/04 12:49:44;;;;;;;;;;;;;;;14.04;81.98;100735.13;5033577;28;19917;-58
2022/11/04 12:52:09;;;;;;;;;;;;;;;14.04;81.18;100740.47;5039443;28;19929;-58
2022/11/04 12:54:44;;;;;;;;;;;;;;;13.96;80.38;100745.97;5034679;28;19940;-58
2022/11/04 12:57:27;;;;;;;;;;;;;;;13.93;80.36;100733.84;5039783;28;19943;-57
2022/11/04 12:59:55;;;;;;;;;;;;;;;13.98;80.88;100740.44;5047871;28;19917;-59
2022/11/04 13:02:22;;;;;;;;;;;;;;;13.96;80.27;100735.28;5043865;28;20008;-58
2022/11/04 13:05:08;;;;;;;;;;;;;;;13.90;80.60;100742.25;5049610;28;19928;-58
2022/11/04 13:07:44;;;;;;;;;;;;;;;14.00;80.31;100749.06;5047118;28;19999;-58
2022/11/04 13:10:20;;;;;;;;;;;;;;;14.22;80.80;100756.81;5044976;28;19917;-58
2022/11/04 13:12:47;;;;;;;;;;;;;;;14.49;80.56;100752.47;5045894;28;21226;-58
2022/11/04 13:15:17;;;;;;;;;;;;;;;14.62;80.23;100750.88;5048603;28;19978;-58
2022/11/04 13:17:44;;;;;;;;;;;;;;;14.66;79.74;100762.81;5045755;28;19944;-58
2022/11/04 13:20:10;;;;;;;;;;;;;;;14.70;79.92;100764.88;5050286;28;20007;-58